sensor_id;sensor_type;location;lat;lon;timestamp;pressure;altitude;pressure_sealevel;temperature;humidity
47330;BME280;33060;50.178;7.570;2022-12-15T00:01:57;95899.66;;;-6.27;83.57
47330;BME280;33060;50.178;7.570;2022-12-15T00:04:42;95906.22;;;-6.15;84.30
47330;BME280;33060;50.178;7.570;2022-12-15T00:07:28;95906.50;;;-6.27;82.69
47330;BME280;33060;50.178;7.570;2022-12-15T00:10:13;95906.00;;;-6.43;82.96
47330;BME280;33060;50.178;7.570;2022-12-15T00:12:59;95906.03;;;-6.44;83.23
47330;BME280;33060;50.178;7.570;2022-12-15T00:15:47;95909.75;;;-6.58;82.86
47330;BME280;33060;50.178;7.570;2022-12-15T00:18:33;95903.63;;;-6.50;83.71
47330;BME280;33060;50.178;7.570;2022-12-15T00:21:18;95915.56;;;-6.49;83.66
47330;BME280;33060;50.178;7.570;2022-12-15T00:24:03;95917.25;;;-6.48;84.62
47330;BME280;33060;50.178;7.570;2022-12-15T00:26:49;95919.44;;;-6.32;84.62
47330;BME280;33060;50.178;7.570;2022-12-15T00:29:34;95927.22;;;-6.36;84.88
47330;BME280;33060;50.178;7.570;2022-12-15T00:32:21;95924.63;;;-6.35;85.15
47330;BME280;33060;50.178;7.570;2022-12-15T00:35:07;95920.38;;;-6.36;84.89
47330;BME280;33060;50.178;7.570;2022-12-15T00:37:52;95914.38;;;-6.35;83.73
47330;BME280;33060;50.178;7.570;2022-12-15T00:40:38;95917.84;;;-6.37;83.26
47330;BME280;33060;50.178;7.570;2022-12-15T00:43:04;95923.84;;;-6.38;84.22
47330;BME280;33060;50.178;7.570;2022-12-15T00:45:31;95931.81;;;-6.49;83.51
47330;BME280;33060;50.178;7.570;2022-12-15T00:48:16;95935.16;;;-6.47;84.19
47330;BME280;33060;50.178;7.570;2022-12-15T00:50:43;95941.22;;;-6.49;84.37
47330;BME280;33060;50.178;7.570;2022-12-15T00:53:19;95938.53;;;-6.45;84.31
47330;BME280;33060;50.178;7.570;2022-12-15T00:56:06;95937.69;;;-6.45;84.37
47330;BME280;33060;50.178;7.570;2022-12-15T00:58:52;95944.59;;;-6.47;83.72
47330;BME280;33060;50.178;7.570;2022-12-15T01:01:37;95942.66;;;-6.38;83.70
47330;BME280;33060;50.178;7.570;2022-12-15T01:04:23;95941.75;;;-6.35;85.55
47330;BME280;33060;50.178;7.570;2022-12-15T01:07:09;95938.97;;;-6.26;84.02
47330;BME280;33060;50.178;7.570;2022-12-15T01:09:54;95944.19;;;-6.29;83.40
47330;BME280;33060;50.178;7.570;2022-12-15T01:12:39;95945.25;;;-6.39;83.59
47330;BME280;33060;50.178;7.570;2022-12-15T01:15:25;95953.25;;;-6.53;84.29
47330;BME280;33060;50.178;7.570;2022-12-15T01:18:10;95953.47;;;-6.64;82.94
47330;BME280;33060;50.178;7.570;2022-12-15T01:21:01;95964.44;;;-6.57;84.14
47330;BME280;33060;50.178;7.570;2022-12-15T01:23:29;95963.00;;;-6.69;83.18
47330;BME280;33060;50.178;7.570;2022-12-15T01:25:57;95957.00;;;-6.69;84.58
47330;BME280;33060;50.178;7.570;2022-12-15T01:28:23;95962.53;;;-6.47;86.66
47330;BME280;33060;50.178;7.570;2022-12-15T01:30:50;95971.00;;;-6.44;84.02
47330;BME280;33060;50.178;7.570;2022-12-15T01:33:18;95978.56;;;-6.38;88.52
47330;BME280;33060;50.178;7.570;2022-12-15T01:35:57;95986.06;;;-6.29;89.19
47330;BME280;33060;50.178;7.570;2022-12-15T01:38:25;95988.59;;;-6.27;90.23
47330;BME280;33060;50.178;7.570;2022-12-15T01:40:55;95977.66;;;-6.35;87.92
47330;BME280;33060;50.178;7.570;2022-12-15T01:43:26;95987.91;;;-6.35;87.28
47330;BME280;33060;50.178;7.570;2022-12-15T01:46:10;95991.28;;;-6.32;90.55
47330;BME280;33060;50.178;7.570;2022-12-15T01:48:46;95997.84;;;-6.20;90.30
47330;BME280;33060;50.178;7.570;2022-12-15T01:51:33;95992.84;;;-6.24;90.85
47330;BME280;33060;50.178;7.570;2022-12-15T01:54:07;95998.25;;;-6.38;90.88
47330;BME280;33060;50.178;7.570;2022-12-15T01:56:38;95998.91;;;-6.29;90.95
47330;BME280;33060;50.178;7.570;2022-12-15T01:59:08;96004.72;;;-6.20;91.29
47330;BME280;33060;50.178;7.570;2022-12-15T02:01:36;95998.44;;;-6.09;89.95
47330;BME280;33060;50.178;7.570;2022-12-15T02:04:03;96000.91;;;-6.03;89.66
47330;BME280;33060;50.178;7.570;2022-12-15T02:06:29;96000.72;;;-5.95;90.43
47330;BME280;33060;50.178;7.570;2022-12-15T02:08:58;96004.78;;;-5.86;91.25
47330;BME280;33060;50.178;7.570;2022-12-15T02:12:05;96005.53;;;-5.83;90.63
47330;BME280;33060;50.178;7.570;2022-12-15T02:31:12;96019.78;;;-5.34;87.71
47330;BME280;33060;50.178;7.570;2022-12-15T02:34:06;96012.69;;;-5.24;88.29
47330;BME280;33060;50.178;7.570;2022-12-15T02:36:38;96008.50;;;-5.27;87.54
47330;BME280;33060;50.178;7.570;2022-12-15T02:39:06;96010.16;;;-5.26;86.52
47330;BME280;33060;50.178;7.570;2022-12-15T02:41:39;96012.75;;;-5.26;86.76
47330;BME280;33060;50.178;7.570;2022-12-15T02:44:12;96015.41;;;-5.30;86.49
47330;BME280;33060;50.178;7.570;2022-12-15T02:53:02;95998.53;;;-5.41;86.77
47330;BME280;33060;50.178;7.570;2022-12-15T02:58:19;96006.59;;;-5.54;88.61
47330;BME280;33060;50.178;7.570;2022-12-15T03:01:00;96004.38;;;-5.34;88.93
47330;BME280;33060;50.178;7.570;2022-12-15T03:03:30;96010.03;;;-5.20;88.12
47330;BME280;33060;50.178;7.570;2022-12-15T03:05:58;96021.72;;;-5.08;88.40
47330;BME280;33060;50.178;7.570;2022-12-15T03:08:27;96015.59;;;-5.02;87.94
47330;BME280;33060;50.178;7.570;2022-12-15T03:10:55;96022.31;;;-4.98;87.82
47330;BME280;33060;50.178;7.570;2022-12-15T03:13:23;96027.25;;;-4.91;88.25
47330;BME280;33060;50.178;7.570;2022-12-15T03:15:50;96032.25;;;-4.85;89.34
47330;BME280;33060;50.178;7.570;2022-12-15T03:18:17;96042.41;;;-4.80;88.82
47330;BME280;33060;50.178;7.570;2022-12-15T03:20:48;96039.78;;;-4.78;88.96
47330;BME280;33060;50.178;7.570;2022-12-15T03:23:15;96037.16;;;-4.75;92.23
47330;BME280;33060;50.178;7.570;2022-12-15T03:25:45;96032.81;;;-4.73;93.27
47330;BME280;33060;50.178;7.570;2022-12-15T03:28:15;96044.63;;;-4.66;93.24
47330;BME280;33060;50.178;7.570;2022-12-15T03:30:42;96035.34;;;-4.72;94.49
47330;BME280;33060;50.178;7.570;2022-12-15T03:33:10;96035.97;;;-4.64;94.90
47330;BME280;33060;50.178;7.570;2022-12-15T03:35:36;96042.00;;;-4.65;94.62
47330;BME280;33060;50.178;7.570;2022-12-15T03:38:03;96038.53;;;-4.64;93.97
47330;BME280;33060;50.178;7.570;2022-12-15T03:40:30;96037.59;;;-4.60;94.28
47330;BME280;33060;50.178;7.570;2022-12-15T03:42:56;96041.06;;;-4.62;95.49
47330;BME280;33060;50.178;7.570;2022-12-15T03:45:25;96048.75;;;-4.61;95.35
47330;BME280;33060;50.178;7.570;2022-12-15T03:47:54;96038.38;;;-4.58;94.35
47330;BME280;33060;50.178;7.570;2022-12-15T03:50:23;96036.66;;;-4.57;92.75
47330;BME280;33060;50.178;7.570;2022-12-15T03:53:01;96029.13;;;-4.65;94.05
47330;BME280;33060;50.178;7.570;2022-12-15T03:55:28;96034.38;;;-4.68;93.55
47330;BME280;33060;50.178;7.570;2022-12-15T03:57:55;96037.50;;;-4.57;92.89
47330;BME280;33060;50.178;7.570;2022-12-15T04:00:23;96034.94;;;-4.57;92.75
47330;BME280;33060;50.178;7.570;2022-12-15T04:02:50;96031.38;;;-4.52;91.22
47330;BME280;33060;50.178;7.570;2022-12-15T04:05:21;96037.66;;;-4.63;91.41
47330;BME280;33060;50.178;7.570;2022-12-15T04:07:48;96037.66;;;-4.63;92.84
47330;BME280;33060;50.178;7.570;2022-12-15T04:10:14;96050.50;;;-4.63;93.09
47330;BME280;33060;50.178;7.570;2022-12-15T04:12:41;96047.16;;;-4.65;92.85
47330;BME280;33060;50.178;7.570;2022-12-15T04:15:09;96059.06;;;-4.62;93.05
47330;BME280;33060;50.178;7.570;2022-12-15T04:17:36;96049.00;;;-4.70;92.12
47330;BME280;33060;50.178;7.570;2022-12-15T04:20:04;96056.75;;;-4.71;92.05
47330;BME280;33060;50.178;7.570;2022-12-15T04:22:39;96061.06;;;-4.72;91.90
47330;BME280;33060;50.178;7.570;2022-12-15T04:25:08;96060.91;;;-4.66;93.60
47330;BME280;33060;50.178;7.570;2022-12-15T04:27:54;96057.50;;;-4.66;91.98
47330;BME280;33060;50.178;7.570;2022-12-15T04:30:53;96055.84;;;-4.69;91.10
47330;BME280;33060;50.178;7.570;2022-12-15T04:33:42;96055.06;;;-4.72;90.67
47330;BME280;33060;50.178;7.570;2022-12-15T04:36:29;96054.63;;;-4.88;91.38
47330;BME280;33060;50.178;7.570;2022-12-15T04:39:15;96059.06;;;-4.93;91.93
47330;BME280;33060;50.178;7.570;2022-12-15T04:42:01;96057.47;;;-4.99;92.17
47330;BME280;33060;50.178;7.570;2022-12-15T04:44:48;96059.84;;;-4.91;92.82
47330;BME280;33060;50.178;7.570;2022-12-15T04:47:39;96065.09;;;-4.94;92.71
47330;BME280;33060;50.178;7.570;2022-12-15T04:50:25;96063.81;;;-4.79;92.75
47330;BME280;33060;50.178;7.570;2022-12-15T04:53:13;96053.53;;;-4.79;92.07
47330;BME280;33060;50.178;7.570;2022-12-15T04:56:00;96059.09;;;-4.96;92.82
47330;BME280;33060;50.178;7.570;2022-12-15T04:58:45;96062.94;;;-4.78;92.89
47330;BME280;33060;50.178;7.570;2022-12-15T05:01:32;96070.59;;;-4.75;92.35
47330;BME280;33060;50.178;7.570;2022-12-15T05:04:18;96069.06;;;-4.82;93.85
47330;BME280;33060;50.178;7.570;2022-12-15T05:07:03;96065.66;;;-4.83;93.38
47330;BME280;33060;50.178;7.570;2022-12-15T05:09:49;96061.25;;;-4.79;93.67
47330;BME280;33060;50.178;7.570;2022-12-15T05:12:41;96061.44;;;-4.87;93.26
47330;BME280;33060;50.178;7.570;2022-12-15T05:15:26;96063.81;;;-4.79;94.33
47330;BME280;33060;50.178;7.570;2022-12-15T05:18:11;96062.13;;;-4.80;92.81
47330;BME280;33060;50.178;7.570;2022-12-15T05:20:57;96069.78;;;-4.77;93.38
47330;BME280;33060;50.178;7.570;2022-12-15T05:23:43;96075.94;;;-4.83;92.99
47330;BME280;33060;50.178;7.570;2022-12-15T05:26:28;96078.66;;;-4.89;92.48
47330;BME280;33060;50.178;7.570;2022-12-15T05:29:18;96086.31;;;-4.86;92.48
47330;BME280;33060;50.178;7.570;2022-12-15T05:32:03;96089.78;;;-4.89;91.57
47330;BME280;33060;50.178;7.570;2022-12-15T05:34:32;96090.53;;;-4.84;91.17
47330;BME280;33060;50.178;7.570;2022-12-15T05:37:00;96090.78;;;-4.94;91.98
47330;BME280;33060;50.178;7.570;2022-12-15T05:39:28;96094.97;;;-4.90;91.68
47330;BME280;33060;50.178;7.570;2022-12-15T05:41:55;96096.00;;;-4.97;92.16
47330;BME280;33060;50.178;7.570;2022-12-15T05:44:23;96113.09;;;-4.96;91.84
47330;BME280;33060;50.178;7.570;2022-12-15T05:46:51;96103.66;;;-4.96;92.61
47330;BME280;33060;50.178;7.570;2022-12-15T05:49:18;96104.59;;;-4.98;93.13
47330;BME280;33060;50.178;7.570;2022-12-15T05:51:46;96104.59;;;-4.98;92.54
47330;BME280;33060;50.178;7.570;2022-12-15T05:54:15;96103.88;;;-5.05;92.56
47330;BME280;33060;50.178;7.570;2022-12-15T05:56:43;96109.81;;;-5.01;93.26
47330;BME280;33060;50.178;7.570;2022-12-15T05:59:10;96104.78;;;-5.06;93.25
47330;BME280;33060;50.178;7.570;2022-12-15T06:01:37;96107.16;;;-4.98;94.94
47330;BME280;33060;50.178;7.570;2022-12-15T06:04:04;96115.00;;;-5.03;94.50
47330;BME280;33060;50.178;7.570;2022-12-15T06:06:31;96109.16;;;-5.09;93.60
47330;BME280;33060;50.178;7.570;2022-12-15T06:08:57;96110.66;;;-5.01;93.70
47330;BME280;33060;50.178;7.570;2022-12-15T06:11:24;96116.66;;;-5.00;92.86
47330;BME280;33060;50.178;7.570;2022-12-15T06:13:54;96121.09;;;-5.07;92.84
47330;BME280;33060;50.178;7.570;2022-12-15T06:16:22;96123.63;;;-5.05;93.36
47330;BME280;33060;50.178;7.570;2022-12-15T06:18:52;96130.66;;;-5.12;92.50
47330;BME280;33060;50.178;7.570;2022-12-15T06:21:23;96140.25;;;-5.20;92.70
47330;BME280;33060;50.178;7.570;2022-12-15T06:23:50;96140.25;;;-5.20;92.76
47330;BME280;33060;50.178;7.570;2022-12-15T06:26:18;96146.28;;;-5.21;92.78
47330;BME280;33060;50.178;7.570;2022-12-15T06:28:46;96143.59;;;-5.17;93.19
47330;BME280;33060;50.178;7.570;2022-12-15T06:31:14;96152.22;;;-5.19;92.54
47330;BME280;33060;50.178;7.570;2022-12-15T06:33:43;96149.53;;;-5.15;94.55
47330;BME280;33060;50.178;7.570;2022-12-15T06:36:12;96155.59;;;-5.17;95.25
47330;BME280;33060;50.178;7.570;2022-12-15T06:38:40;96156.56;;;-5.23;95.64
47330;BME280;33060;50.178;7.570;2022-12-15T06:41:13;96158.16;;;-5.17;95.96
47330;BME280;33060;50.178;7.570;2022-12-15T06:43:40;96150.50;;;-5.19;94.03
47330;BME280;33060;50.178;7.570;2022-12-15T06:46:08;96153.22;;;-5.25;93.77
47330;BME280;33060;50.178;7.570;2022-12-15T06:48:35;96149.69;;;-5.21;93.98
47330;BME280;33060;50.178;7.570;2022-12-15T06:51:06;96143.72;;;-5.23;93.95
47330;BME280;33060;50.178;7.570;2022-12-15T06:53:42;96142.00;;;-5.21;94.88
47330;BME280;33060;50.178;7.570;2022-12-15T06:56:19;96143.81;;;-5.26;94.84
47330;BME280;33060;50.178;7.570;2022-12-15T06:58:54;96141.16;;;-5.23;93.91
47330;BME280;33060;50.178;7.570;2022-12-15T07:01:22;96149.84;;;-5.27;94.63
47330;BME280;33060;50.178;7.570;2022-12-15T07:03:50;96155.13;;;-5.34;95.27
47330;BME280;33060;50.178;7.570;2022-12-15T07:06:18;96155.91;;;-5.29;97.40
47330;BME280;33060;50.178;7.570;2022-12-15T07:08:52;96164.19;;;-5.18;97.02
47330;BME280;33060;50.178;7.570;2022-12-15T07:11:20;96156.44;;;-5.17;96.76
47330;BME280;33060;50.178;7.570;2022-12-15T07:13:51;96151.38;;;-5.20;96.00
47330;BME280;33060;50.178;7.570;2022-12-15T07:16:19;96148.09;;;-5.26;95.30
47330;BME280;33060;50.178;7.570;2022-12-15T07:18:47;96143.50;;;-5.14;95.69
47330;BME280;33060;50.178;7.570;2022-12-15T07:21:14;96149.53;;;-5.15;94.67
47330;BME280;33060;50.178;7.570;2022-12-15T07:23:41;96146.16;;;-5.17;94.10
47330;BME280;33060;50.178;7.570;2022-12-15T07:26:24;96154.00;;;-5.21;94.43
47330;BME280;33060;50.178;7.570;2022-12-15T07:28:51;96157.28;;;-5.16;93.43
47330;BME280;33060;50.178;7.570;2022-12-15T07:31:19;96154.38;;;-5.38;93.58
47330;BME280;33060;50.178;7.570;2022-12-15T07:33:46;96157.47;;;-5.24;94.95
47330;BME280;33060;50.178;7.570;2022-12-15T07:36:14;96154.63;;;-5.12;93.94
47330;BME280;33060;50.178;7.570;2022-12-15T07:38:40;96162.13;;;-5.02;93.74
47330;BME280;33060;50.178;7.570;2022-12-15T07:41:08;96161.44;;;-5.10;92.47
47330;BME280;33060;50.178;7.570;2022-12-15T07:43:36;96167.31;;;-5.05;92.53
47330;BME280;33060;50.178;7.570;2022-12-15T07:46:04;96177.56;;;-5.02;92.74
47330;BME280;33060;50.178;7.570;2022-12-15T07:48:32;96187.66;;;-4.96;92.56
47330;BME280;33060;50.178;7.570;2022-12-15T07:51:04;96179.91;;;-4.93;92.95
47330;BME280;33060;50.178;7.570;2022-12-15T07:53:36;96184.25;;;-4.97;93.50
47330;BME280;33060;50.178;7.570;2022-12-15T07:56:04;96184.66;;;-4.78;92.34
47330;BME280;33060;50.178;7.570;2022-12-15T07:58:35;96172.78;;;-4.82;91.89
47330;BME280;33060;50.178;7.570;2022-12-15T08:01:04;96170.81;;;-4.72;91.79
47330;BME280;33060;50.178;7.570;2022-12-15T08:03:32;96171.56;;;-4.67;91.20
47330;BME280;33060;50.178;7.570;2022-12-15T08:06:09;96168.81;;;-4.60;91.04
47330;BME280;33060;50.178;7.570;2022-12-15T08:08:36;96177.47;;;-4.64;90.30
47330;BME280;33060;50.178;7.570;2022-12-15T08:11:08;96179.44;;;-4.39;90.47
47330;BME280;33060;50.178;7.570;2022-12-15T08:13:36;96176.09;;;-4.43;89.21
47330;BME280;33060;50.178;7.570;2022-12-15T08:16:23;96181.91;;;-4.36;88.20
47330;BME280;33060;50.178;7.570;2022-12-15T08:18:50;96172.22;;;-4.27;88.12
47330;BME280;33060;50.178;7.570;2022-12-15T08:21:16;96171.66;;;-4.05;87.66
47330;BME280;33060;50.178;7.570;2022-12-15T08:23:43;96159.59;;;-4.03;86.98
47330;BME280;33060;50.178;7.570;2022-12-15T08:26:12;96159.44;;;-3.97;85.87
47330;BME280;33060;50.178;7.570;2022-12-15T08:28:41;96160.31;;;-3.98;86.64
47330;BME280;33060;50.178;7.570;2022-12-15T08:31:16;96176.50;;;-3.94;85.74
47330;BME280;33060;50.178;7.570;2022-12-15T08:33:44;96181.13;;;-4.06;86.50
47330;BME280;33060;50.178;7.570;2022-12-15T08:36:12;96188.81;;;-4.04;86.22
47330;BME280;33060;50.178;7.570;2022-12-15T08:38:41;96183.16;;;-4.17;86.27
47330;BME280;33060;50.178;7.570;2022-12-15T08:41:11;96178.22;;;-4.26;87.52
47330;BME280;33060;50.178;7.570;2022-12-15T08:43:39;96175.53;;;-4.21;87.32
47330;BME280;33060;50.178;7.570;2022-12-15T08:46:15;96176.41;;;-4.22;87.70
47330;BME280;33060;50.178;7.570;2022-12-15T08:48:42;96179.75;;;-4.19;87.35
47330;BME280;33060;50.178;7.570;2022-12-15T08:51:09;96190.78;;;-4.14;87.46
47330;BME280;33060;50.178;7.570;2022-12-15T08:53:36;96202.72;;;-4.11;87.82
47330;BME280;33060;50.178;7.570;2022-12-15T08:56:10;96207.47;;;-3.96;87.77
47330;BME280;33060;50.178;7.570;2022-12-15T08:58:38;96207.47;;;-3.96;86.52
47330;BME280;33060;50.178;7.570;2022-12-15T09:01:07;96214.84;;;-3.84;86.51
47330;BME280;33060;50.178;7.570;2022-12-15T09:03:35;96205.28;;;-3.79;85.43
47330;BME280;33060;50.178;7.570;2022-12-15T09:06:05;96216.53;;;-3.81;85.74
47330;BME280;33060;50.178;7.570;2022-12-15T09:08:32;96208.78;;;-3.81;85.90
47330;BME280;33060;50.178;7.570;2022-12-15T09:11:00;96219.53;;;-3.67;85.76
47330;BME280;33060;50.178;7.570;2022-12-15T09:13:27;96223.59;;;-3.58;84.21
47330;BME280;33060;50.178;7.570;2022-12-15T09:18:35;96228.00;;;-3.62;84.31
47330;BME280;33060;50.178;7.570;2022-12-15T09:21:03;96237.13;;;-3.50;83.58
47330;BME280;33060;50.178;7.570;2022-12-15T09:23:31;96246.69;;;-3.54;84.77
47330;BME280;33060;50.178;7.570;2022-12-15T09:26:09;96240.59;;;-3.51;84.71
47330;BME280;33060;50.178;7.570;2022-12-15T09:28:36;96242.06;;;-3.43;83.94
47330;BME280;33060;50.178;7.570;2022-12-15T09:31:17;96246.09;;;-3.34;82.93
47330;BME280;33060;50.178;7.570;2022-12-15T09:33:47;96244.78;;;-3.18;82.53
47330;BME280;33060;50.178;7.570;2022-12-15T09:36:14;96245.31;;;-3.06;81.48
47330;BME280;33060;50.178;7.570;2022-12-15T09:38:42;96251.81;;;-2.93;80.54
47330;BME280;33060;50.178;7.570;2022-12-15T09:43:49;96248.38;;;-2.94;80.27
47330;BME280;33060;50.178;7.570;2022-12-15T09:48:48;96265.94;;;-2.78;79.29
47330;BME280;33060;50.178;7.570;2022-12-15T09:51:17;96264.09;;;-2.73;79.46
47330;BME280;33060;50.178;7.570;2022-12-15T09:53:45;96276.97;;;-3.01;80.19
47330;BME280;33060;50.178;7.570;2022-12-15T09:56:53;96277.66;;;-2.96;79.87
47330;BME280;33060;50.178;7.570;2022-12-15T09:59:30;96270.19;;;-2.76;78.72
47330;BME280;33060;50.178;7.570;2022-12-15T10:02:21;96268.69;;;-2.83;78.77
47330;BME280;33060;50.178;7.570;2022-12-15T10:05:11;96267.41;;;-2.70;78.57
47330;BME280;33060;50.178;7.570;2022-12-15T10:07:42;96265.41;;;-2.60;79.44
47330;BME280;33060;50.178;7.570;2022-12-15T10:12:49;96263.84;;;-2.38;77.53
47330;BME280;33060;50.178;7.570;2022-12-15T10:15:33;96262.81;;;-2.32;76.40
47330;BME280;33060;50.178;7.570;2022-12-15T10:20:36;96254.22;;;-1.81;75.30
47330;BME280;33060;50.178;7.570;2022-12-15T10:23:14;96258.41;;;-2.04;75.03
47330;BME280;33060;50.178;7.570;2022-12-15T10:25:48;96272.22;;;-2.05;75.57
47330;BME280;33060;50.178;7.570;2022-12-15T10:31:40;96262.38;;;-1.68;73.90
47330;BME280;33060;50.178;7.570;2022-12-15T10:34:28;96261.47;;;-1.43;73.52
47330;BME280;33060;50.178;7.570;2022-12-15T10:36:57;96253.31;;;-1.55;73.60
47330;BME280;33060;50.178;7.570;2022-12-15T10:39:38;96244.28;;;-1.44;73.76
47330;BME280;33060;50.178;7.570;2022-12-15T10:44:42;96247.25;;;-1.54;73.47
47330;BME280;33060;50.178;7.570;2022-12-15T10:47:24;96248.09;;;-1.54;73.66
47330;BME280;33060;50.178;7.570;2022-12-15T10:49:55;96249.06;;;-1.58;73.45
47330;BME280;33060;50.178;7.570;2022-12-15T10:52:49;96262.63;;;-1.51;73.23
47330;BME280;33060;50.178;7.570;2022-12-15T10:55:36;96263.16;;;-1.42;72.70
47330;BME280;33060;50.178;7.570;2022-12-15T10:58:14;96246.72;;;-1.64;73.46
47330;BME280;33060;50.178;7.570;2022-12-15T11:00:41;96246.66;;;-1.62;73.62
47330;BME280;33060;50.178;7.570;2022-12-15T11:03:21;96242.00;;;-1.53;73.75
47330;BME280;33060;50.178;7.570;2022-12-15T11:05:55;96239.22;;;-1.47;72.47
47330;BME280;33060;50.178;7.570;2022-12-15T11:08:22;96238.19;;;-1.43;73.15
47330;BME280;33060;50.178;7.570;2022-12-15T11:10:52;96227.31;;;-1.27;73.24
47330;BME280;33060;50.178;7.570;2022-12-15T11:13:39;96221.22;;;-1.26;71.75
47330;BME280;33060;50.178;7.570;2022-12-15T11:16:25;96214.16;;;-1.21;72.26
47330;BME280;33060;50.178;7.570;2022-12-15T11:18:57;96215.47;;;-1.11;72.13
47330;BME280;33060;50.178;7.570;2022-12-15T11:21:41;96219.81;;;-1.11;73.17
47330;BME280;33060;50.178;7.570;2022-12-15T11:24:17;96210.66;;;-0.98;72.67
47330;BME280;33060;50.178;7.570;2022-12-15T11:27:18;96218.69;;;-1.28;72.44
47330;BME280;33060;50.178;7.570;2022-12-15T11:32:31;96205.69;;;-1.26;72.74
47330;BME280;33060;50.178;7.570;2022-12-15T11:34:59;96200.03;;;-1.12;72.78
47330;BME280;33060;50.178;7.570;2022-12-15T11:37:36;96200.59;;;-1.06;72.71
47330;BME280;33060;50.178;7.570;2022-12-15T11:42:46;96181.91;;;-0.91;72.83
47330;BME280;33060;50.178;7.570;2022-12-15T11:48:16;96177.44;;;-0.65;72.04
47330;BME280;33060;50.178;7.570;2022-12-15T11:50:55;96175.88;;;-0.47;71.77
47330;BME280;33060;50.178;7.570;2022-12-15T11:53:51;96179.00;;;-0.39;71.87
47330;BME280;33060;50.178;7.570;2022-12-15T11:56:33;96181.59;;;-0.39;70.81
47330;BME280;33060;50.178;7.570;2022-12-15T12:07:46;96189.50;;;-0.64;71.71
47330;BME280;33060;50.178;7.570;2022-12-15T12:10:30;96192.28;;;-0.69;71.52
47330;BME280;33060;50.178;7.570;2022-12-15T12:16:03;96184.50;;;-0.91;72.59
47330;BME280;33060;50.178;7.570;2022-12-15T12:18:50;96185.56;;;-0.96;73.92
47330;BME280;33060;50.178;7.570;2022-12-15T12:21:33;96175.22;;;-0.96;73.78
47330;BME280;33060;50.178;7.570;2022-12-15T12:29:24;96159.38;;;-0.89;73.49
47330;BME280;33060;50.178;7.570;2022-12-15T12:32:02;96156.25;;;-0.97;73.74
47330;BME280;33060;50.178;7.570;2022-12-15T12:34:53;96144.22;;;-0.98;74.04
47330;BME280;33060;50.178;7.570;2022-12-15T12:37:51;96144.34;;;-1.01;74.75
47330;BME280;33060;50.178;7.570;2022-12-15T12:40:35;96138.94;;;-0.95;73.74
47330;BME280;33060;50.178;7.570;2022-12-15T12:43:10;96140.59;;;-1.16;74.56
47330;BME280;33060;50.178;7.570;2022-12-15T12:45:49;96135.00;;;-1.27;74.71
47330;BME280;33060;50.178;7.570;2022-12-15T12:48:26;96146.88;;;-1.21;74.33
47330;BME280;33060;50.178;7.570;2022-12-15T12:51:18;96144.03;;;-1.37;74.02
47330;BME280;33060;50.178;7.570;2022-12-15T12:53:48;96135.44;;;-1.37;74.99
47330;BME280;33060;50.178;7.570;2022-12-15T12:56:30;96132.16;;;-1.43;74.79
47330;BME280;33060;50.178;7.570;2022-12-15T12:58:58;96128.56;;;-1.38;75.06
47330;BME280;33060;50.178;7.570;2022-12-15T13:01:33;96117.63;;;-1.45;74.92
47330;BME280;33060;50.178;7.570;2022-12-15T13:05:00;96113.72;;;-1.11;74.57
47330;BME280;33060;50.178;7.570;2022-12-15T13:07:06;96097.38;;;-1.12;73.13
47330;BME280;33060;50.178;7.570;2022-12-15T13:12:52;96080.34;;;-1.18;73.06
47330;BME280;33060;50.178;7.570;2022-12-15T13:20:33;96074.72;;;-1.51;74.23
47330;BME280;33060;50.178;7.570;2022-12-15T13:28:36;96065.06;;;-1.69;74.09
47330;BME280;33060;50.178;7.570;2022-12-15T13:33:55;96059.94;;;-2.16;75.45
47330;BME280;33060;50.178;7.570;2022-12-15T13:44:55;96054.03;;;-2.68;76.86
47330;BME280;33060;50.178;7.570;2022-12-15T13:47:25;96045.91;;;-2.57;76.11
47330;BME280;33060;50.178;7.570;2022-12-15T13:52:35;96031.19;;;-2.80;77.67
47330;BME280;33060;50.178;7.570;2022-12-15T13:55:25;96040.53;;;-2.76;77.26
47330;BME280;33060;50.178;7.570;2022-12-15T13:58:20;96036.03;;;-2.71;77.05
47330;BME280;33060;50.178;7.570;2022-12-15T14:00:55;96033.13;;;-2.62;76.81
47330;BME280;33060;50.178;7.570;2022-12-15T14:03:23;96032.69;;;-2.73;77.07
47330;BME280;33060;50.178;7.570;2022-12-15T14:05:55;96040.69;;;-2.80;77.57
47330;BME280;33060;50.178;7.570;2022-12-15T14:08:23;96043.75;;;-2.94;77.42
47330;BME280;33060;50.178;7.570;2022-12-15T14:10:54;96044.63;;;-2.95;77.79
47330;BME280;33060;50.178;7.570;2022-12-15T14:13:34;96046.34;;;-2.96;77.95
47330;BME280;33060;50.178;7.570;2022-12-15T14:16:17;96047.09;;;-2.92;77.70
47330;BME280;33060;50.178;7.570;2022-12-15T14:18:44;96051.47;;;-2.94;77.45
47330;BME280;33060;50.178;7.570;2022-12-15T14:21:27;96056.72;;;-2.97;77.80
47330;BME280;33060;50.178;7.570;2022-12-15T14:23:55;96059.59;;;-3.06;77.98
47330;BME280;33060;50.178;7.570;2022-12-15T14:26:43;96065.31;;;-3.23;76.95
47330;BME280;33060;50.178;7.570;2022-12-15T14:29:10;96075.25;;;-3.39;77.62
47330;BME280;33060;50.178;7.570;2022-12-15T14:31:38;96071.03;;;-3.42;78.38
47330;BME280;33060;50.178;7.570;2022-12-15T14:34:11;96068.34;;;-3.37;78.66
47330;BME280;33060;50.178;7.570;2022-12-15T14:36:40;96078.47;;;-3.32;79.04
47330;BME280;33060;50.178;7.570;2022-12-15T14:39:16;96067.63;;;-3.42;78.68
47330;BME280;33060;50.178;7.570;2022-12-15T14:41:46;96066.50;;;-3.61;77.46
47330;BME280;33060;50.178;7.570;2022-12-15T14:44:23;96083.75;;;-3.93;77.61
47330;BME280;33060;50.178;7.570;2022-12-15T14:47:06;96085.25;;;-4.15;78.89
47330;BME280;33060;50.178;7.570;2022-12-15T14:49:42;96087.63;;;-4.39;78.66
47330;BME280;33060;50.178;7.570;2022-12-15T14:52:35;96093.50;;;-4.66;78.64
47330;BME280;33060;50.178;7.570;2022-12-15T14:55:34;96095.47;;;-4.76;79.75
47330;BME280;33060;50.178;7.570;2022-12-15T14:58:23;96096.72;;;-4.92;81.72
47330;BME280;33060;50.178;7.570;2022-12-15T15:00:53;96102.44;;;-5.15;79.37
47330;BME280;33060;50.178;7.570;2022-12-15T15:03:25;96108.34;;;-5.47;79.36
47330;BME280;33060;50.178;7.570;2022-12-15T15:05:57;96115.78;;;-5.75;80.16
47330;BME280;33060;50.178;7.570;2022-12-15T15:08:32;96125.81;;;-6.03;80.22
47330;BME280;33060;50.178;7.570;2022-12-15T15:11:24;96136.06;;;-6.02;81.34
47330;BME280;33060;50.178;7.570;2022-12-15T15:13:52;96143.31;;;-6.22;81.22
47330;BME280;33060;50.178;7.570;2022-12-15T15:16:21;96149.00;;;-6.06;84.38
47330;BME280;33060;50.178;7.570;2022-12-15T15:18:49;96153.06;;;-5.96;84.27